This is the latest recevied weather packets stored in our database for station/object KJ7BRE-1. If no packets are shown the sender has not sent any weather packets the latest 10 day(s).
| Time | Temp. | Humidity | Pressure | Rain* | Wind** | Luminosity | Snow |
|---|---|---|---|---|---|---|---|
| 1787512521 | 22.22° C | 58% | 1019 hPa | 0 mm | - | - | - |
| 1787512220 | 22.22° C | 60% | 1019 hPa | 0 mm | - | - | - |
| 1787511918 | 22.22° C | 58% | 1019 hPa | 0 mm | - | - | - |
| 1787511617 | 22.22° C | 57% | 1019 hPa | 0 mm | - | - | - |
| 1787511316 | 22.22° C | 58% | 1019 hPa | 0 mm | - | - | - |
| 1787511015 | 21.67° C | 59% | 1019.3 hPa | 0 mm | - | - | - |
| 1787510714 | 22.22° C | 58% | 1019.3 hPa | 0 mm | - | - | - |
| 1787510412 | 21.67° C | 59% | 1019.3 hPa | 0 mm | - | - | - |
| 1787510111 | 21.67° C | 59% | 1019.3 hPa | 0 mm | - | - | - |
| 1787509810 | 21.11° C | 61% | 1019.3 hPa | 0 mm | - | - | - |
| 1787509509 | 21.11° C | 61% | 1019.3 hPa | 0 mm | - | - | - |
| 1787509208 | 21.11° C | 62% | 1019 hPa | 0 mm | - | - | - |
| 1787508906 | 21.11° C | 63% | 1019.3 hPa | 0 mm | - | - | - |
| 1787508605 | 21.11° C | 63% | 1019.3 hPa | 0 mm | - | - | - |
| 1787508304 | 21.11° C | 64% | 1019.3 hPa | 0 mm | - | - | - |
| 1787508002 | 20.56° C | 64% | 1019.3 hPa | 0 mm | - | - | - |
| 1787507700 | 20.56° C | 65% | 1019.3 hPa | 0 mm | - | - | - |
| 1787507399 | 20.56° C | 65% | 1019.3 hPa | 0 mm | - | - | - |
| 1787507098 | 20.56° C | 65% | 1019.3 hPa | 0 mm | - | - | - |
| 1787506797 | 21.11° C | 62% | 1019.3 hPa | 0 mm | - | - | - |
| 1787506496 | 22.22° C | 61% | 1019.3 hPa | 0 mm | - | - | - |
| 1787506194 | 22.22° C | 61% | 1019.3 hPa | 0 mm | - | - | - |
| 1787505893 | 21.67° C | 61% | 1019.3 hPa | 0 mm | - | - | - |
| 1787505592 | 20.56° C | 64% | 1019.3 hPa | 0 mm | - | - | - |
| 1787505291 | 20.56° C | 65% | 1019.3 hPa | 0 mm | - | - | - |
* Rain latest hour (hover to see other rain measurements)
** Current wind speed in m/s (hover to see current wind gust speed)